This is the latest recevied weather packets stored in our database for station/object N7ZAP. If no packets are shown the sender has not sent any weather packets the latest 10 day(s).
| Time | Temp. | Humidity | Pressure | Rain* | Wind** | Luminosity | Snow |
|---|---|---|---|---|---|---|---|
| 1777828037 | 17.78° C | 42% | 1022.3 hPa | 0 mm | - | - | - |
| 1777827734 | 17.22° C | 45% | 1022.7 hPa | 0 mm | - | - | - |
| 1777827431 | 16.67° C | 45% | 1022.5 hPa | 0 mm | - | - | - |
| 1777827128 | 16.67° C | 46% | 1022.6 hPa | 0 mm | - | - | - |
| 1777826824 | 16.67° C | 46% | 1022.7 hPa | 0 mm | - | - | - |
| 1777826521 | 16.67° C | 46% | 1022.6 hPa | 0 mm | - | - | - |
| 1777826217 | 16.67° C | 47% | 1022.7 hPa | 0 mm | - | - | - |
| 1777825915 | 16.67° C | 46% | 1022.7 hPa | 0 mm | - | - | - |
| 1777825612 | 16.11° C | 48% | 1022.7 hPa | 0 mm | - | - | - |
| 1777825310 | 15.56° C | 49% | 1022.6 hPa | 0 mm | - | - | - |
| 1777825007 | 15.56° C | 49% | 1022.7 hPa | 0 mm | - | - | - |
| 1777824702 | 15.56° C | 50% | 1022.7 hPa | 0 mm | - | - | - |
| 1777824400 | 15.56° C | 50% | 1022.6 hPa | 0 mm | - | - | - |
| 1777824096 | 15° C | 52% | 1022.8 hPa | 0 mm | - | - | - |
| 1777823792 | 15° C | 52% | 1022.8 hPa | 0 mm | - | - | - |
| 1777823489 | 14.44° C | 53% | 1022.7 hPa | 0 mm | - | - | - |
| 1777823187 | 14.44° C | 53% | 1023 hPa | 0 mm | - | - | - |
| 1777822885 | 14.44° C | 54% | 1022.8 hPa | 0 mm | - | - | - |
| 1777822582 | 14.44° C | 53% | 1023.2 hPa | 0 mm | - | - | - |
| 1777822279 | 14.44° C | 54% | 1022.6 hPa | 0 mm | - | - | - |
| 1777821977 | 14.44° C | 52% | 1022.7 hPa | 0 mm | - | - | - |
| 1777821675 | 14.44° C | 53% | 1022.7 hPa | 0 mm | - | - | - |
| 1777821372 | 13.89° C | 54% | 1022.7 hPa | 0 mm | - | - | - |
| 1777821069 | 14.44° C | 52% | 1023.1 hPa | 0 mm | - | - | - |
| 1777820765 | 14.44° C | 51% | 1022.7 hPa | 0 mm | - | - | - |
* Rain latest hour (hover to see other rain measurements)
** Current wind speed in m/s (hover to see current wind gust speed)